sensor_id;sensor_type;location;lat;lon;timestamp;pressure;altitude;pressure_sealevel;temperature;humidity
62791;BME280;48830;53.426;10.300;2023-09-18T00:00:06;101001.03;;;24.58;84.07
62791;BME280;48830;53.426;10.300;2023-09-18T00:02:37;100990.44;;;24.61;83.82
62791;BME280;48830;53.426;10.300;2023-09-18T00:05:02;100987.78;;;24.61;83.47
62791;BME280;48830;53.426;10.300;2023-09-18T00:07:28;100980.84;;;24.60;83.98
62791;BME280;48830;53.426;10.300;2023-09-18T00:09:53;100989.59;;;24.59;83.92
62791;BME280;48830;53.426;10.300;2023-09-18T00:12:19;100985.28;;;24.58;83.63
62791;BME280;48830;53.426;10.300;2023-09-18T00:14:47;100984.50;;;24.56;84.24
62791;BME280;48830;53.426;10.300;2023-09-18T00:17:12;100987.91;;;24.58;83.89
62791;BME280;48830;53.426;10.300;2023-09-18T00:19:38;100989.06;;;24.51;84.21
62791;BME280;48830;53.426;10.300;2023-09-18T00:22:03;100982.97;;;24.50;83.89
62791;BME280;48830;53.426;10.300;2023-09-18T00:24:29;100977.63;;;24.52;84.06
62791;BME280;48830;53.426;10.300;2023-09-18T00:26:54;100975.81;;;24.54;83.63
62791;BME280;48830;53.426;10.300;2023-09-18T00:29:20;100970.56;;;24.54;83.54
62791;BME280;48830;53.426;10.300;2023-09-18T00:31:45;100970.56;;;24.54;83.97
62791;BME280;48830;53.426;10.300;2023-09-18T00:34:10;100975.00;;;24.52;83.67
62791;BME280;48830;53.426;10.300;2023-09-18T00:36:36;100962.78;;;24.51;83.73
62791;BME280;48830;53.426;10.300;2023-09-18T00:39:01;100966.44;;;24.47;83.96
62791;BME280;48830;53.426;10.300;2023-09-18T00:41:27;100964.75;;;24.46;83.80
62791;BME280;48830;53.426;10.300;2023-09-18T00:43:52;100963.03;;;24.45;83.86
62791;BME280;48830;53.426;10.300;2023-09-18T00:46:17;100962.06;;;24.47;84.00
62791;BME280;48830;53.426;10.300;2023-09-18T00:48:43;100958.72;;;24.44;84.07
62791;BME280;48830;53.426;10.300;2023-09-18T00:51:08;100952.38;;;24.48;84.18
62791;BME280;48830;53.426;10.300;2023-09-18T00:53:34;100951.53;;;24.47;83.92
62791;BME280;48830;53.426;10.300;2023-09-18T00:56:00;100944.47;;;24.49;83.77
62791;BME280;48830;53.426;10.300;2023-09-18T00:58:26;100939.38;;;24.45;83.39
62791;BME280;48830;53.426;10.300;2023-09-18T01:00:52;100936.69;;;24.46;84.00
62791;BME280;48830;53.426;10.300;2023-09-18T01:03:18;100934.19;;;24.43;83.85
62791;BME280;48830;53.426;10.300;2023-09-18T01:05:44;100932.34;;;24.45;83.32
62791;BME280;48830;53.426;10.300;2023-09-18T01:08:09;100926.09;;;24.48;83.39
62791;BME280;48830;53.426;10.300;2023-09-18T01:13:30;100924.53;;;24.44;83.59
62791;BME280;48830;53.426;10.300;2023-09-18T01:16:24;100915.66;;;24.46;83.90
62791;BME280;48830;53.426;10.300;2023-09-18T01:18:50;100916.41;;;24.50;83.70
62791;BME280;48830;53.426;10.300;2023-09-18T01:21:16;100912.13;;;24.47;83.19
62791;BME280;48830;53.426;10.300;2023-09-18T01:23:42;100905.94;;;24.48;83.51
62791;BME280;48830;53.426;10.300;2023-09-18T01:26:08;100898.28;;;24.44;83.28
62791;BME280;48830;53.426;10.300;2023-09-18T01:28:34;100896.34;;;24.47;83.32
62791;BME280;48830;53.426;10.300;2023-09-18T01:30:59;100880.59;;;24.47;83.21
62791;BME280;48830;53.426;10.300;2023-09-18T01:33:24;100879.06;;;24.42;83.48
62791;BME280;48830;53.426;10.300;2023-09-18T01:35:51;100872.00;;;24.44;83.63
62791;BME280;48830;53.426;10.300;2023-09-18T01:38:19;100869.16;;;24.48;83.40
62791;BME280;48830;53.426;10.300;2023-09-18T01:40:46;100871.72;;;24.50;83.30
62791;BME280;48830;53.426;10.300;2023-09-18T01:43:12;100867.59;;;24.44;83.45
62791;BME280;48830;53.426;10.300;2023-09-18T01:45:37;100869.38;;;24.44;83.30
62791;BME280;48830;53.426;10.300;2023-09-18T01:48:04;100861.34;;;24.47;83.12
62791;BME280;48830;53.426;10.300;2023-09-18T01:50:29;100857.94;;;24.45;83.21
62791;BME280;48830;53.426;10.300;2023-09-18T01:52:55;100858.63;;;24.48;83.08
62791;BME280;48830;53.426;10.300;2023-09-18T01:55:20;100856.09;;;24.47;83.07
62791;BME280;48830;53.426;10.300;2023-09-18T01:57:45;100856.94;;;24.47;83.46
62791;BME280;48830;53.426;10.300;2023-09-18T02:00:11;100856.09;;;24.47;83.21
62791;BME280;48830;53.426;10.300;2023-09-18T02:02:39;100838.50;;;24.49;83.47
62791;BME280;48830;53.426;10.300;2023-09-18T02:05:05;100829.69;;;24.50;83.49
62791;BME280;48830;53.426;10.300;2023-09-18T02:07:31;100829.53;;;24.53;83.13
62791;BME280;48830;53.426;10.300;2023-09-18T02:09:57;100829.53;;;24.53;83.37
62791;BME280;48830;53.426;10.300;2023-09-18T02:12:22;100819.94;;;24.52;82.84
62791;BME280;48830;53.426;10.300;2023-09-18T02:14:47;100813.91;;;24.50;82.70
62791;BME280;48830;53.426;10.300;2023-09-18T02:17:13;100800.81;;;24.48;83.27
62791;BME280;48830;53.426;10.300;2023-09-18T02:19:38;100807.06;;;24.46;82.88
62791;BME280;48830;53.426;10.300;2023-09-18T02:22:03;100813.19;;;24.46;83.28
62791;BME280;48830;53.426;10.300;2023-09-18T02:24:29;100803.53;;;24.47;82.74
62791;BME280;48830;53.426;10.300;2023-09-18T02:26:54;100798.41;;;24.44;83.18
62791;BME280;48830;53.426;10.300;2023-09-18T02:29:20;100806.22;;;24.45;82.75
62791;BME280;48830;53.426;10.300;2023-09-18T02:31:45;100804.72;;;24.40;83.06
62791;BME280;48830;53.426;10.300;2023-09-18T02:34:11;100809.16;;;24.38;83.35
62791;BME280;48830;53.426;10.300;2023-09-18T02:36:37;100809.03;;;24.41;83.30
62791;BME280;48830;53.426;10.300;2023-09-18T02:39:03;100805.63;;;24.39;82.95
62791;BME280;48830;53.426;10.300;2023-09-18T02:41:29;100796.00;;;24.38;83.47
62791;BME280;48830;53.426;10.300;2023-09-18T02:43:54;100792.41;;;24.40;82.69
62791;BME280;48830;53.426;10.300;2023-09-18T02:46:20;100804.72;;;24.40;82.47
62791;BME280;48830;53.426;10.300;2023-09-18T02:48:46;100786.44;;;24.37;83.08
62791;BME280;48830;53.426;10.300;2023-09-18T02:51:11;100785.59;;;24.36;83.16
62791;BME280;48830;53.426;10.300;2023-09-18T02:53:37;100784.72;;;24.35;82.71
62791;BME280;48830;53.426;10.300;2023-09-18T02:56:02;100790.94;;;24.33;82.70
62791;BME280;48830;53.426;10.300;2023-09-18T02:58:27;100789.91;;;24.37;82.58
62791;BME280;48830;53.426;10.300;2023-09-18T03:00:55;100783.25;;;24.28;83.21
62791;BME280;48830;53.426;10.300;2023-09-18T03:03:22;100799.66;;;24.35;83.11
62791;BME280;48830;53.426;10.300;2023-09-18T03:05:48;100800.38;;;24.39;82.53
62791;BME280;48830;53.426;10.300;2023-09-18T03:08:14;100793.38;;;24.38;82.44
62791;BME280;48830;53.426;10.300;2023-09-18T03:10:40;100790.84;;;24.36;82.67
62791;BME280;48830;53.426;10.300;2023-09-18T03:13:06;100782.94;;;24.36;82.91
62791;BME280;48830;53.426;10.300;2023-09-18T03:15:32;100774.44;;;24.29;82.56
62791;BME280;48830;53.426;10.300;2023-09-18T03:17:57;100761.38;;;24.28;82.58
62791;BME280;48830;53.426;10.300;2023-09-18T03:20:23;100769.97;;;24.31;82.64
62791;BME280;48830;53.426;10.300;2023-09-18T03:22:50;100769.19;;;24.29;83.06
62791;BME280;48830;53.426;10.300;2023-09-18T03:25:16;100754.09;;;24.34;83.07
62791;BME280;48830;53.426;10.300;2023-09-18T03:27:41;100747.25;;;24.30;82.50
62791;BME280;48830;53.426;10.300;2023-09-18T03:30:07;100747.19;;;24.32;82.85
62791;BME280;48830;53.426;10.300;2023-09-18T03:32:32;100739.38;;;24.30;82.47
62791;BME280;48830;53.426;10.300;2023-09-18T03:34:58;100744.63;;;24.30;82.95
62791;BME280;48830;53.426;10.300;2023-09-18T03:37:23;100743.84;;;24.28;82.83
62791;BME280;48830;53.426;10.300;2023-09-18T03:39:49;100741.16;;;24.30;82.53
62791;BME280;48830;53.426;10.300;2023-09-18T03:42:14;100739.53;;;24.27;82.85
62791;BME280;48830;53.426;10.300;2023-09-18T03:44:40;100735.13;;;24.28;82.72
62791;BME280;48830;53.426;10.300;2023-09-18T03:47:05;100728.09;;;24.28;82.65
62791;BME280;48830;53.426;10.300;2023-09-18T03:49:31;100724.59;;;24.28;82.38
62791;BME280;48830;53.426;10.300;2023-09-18T03:51:56;100723.88;;;24.24;82.56
62791;BME280;48830;53.426;10.300;2023-09-18T03:54:22;100710.66;;;24.26;82.35
62791;BME280;48830;53.426;10.300;2023-09-18T03:56:47;100710.81;;;24.23;82.51
62791;BME280;48830;53.426;10.300;2023-09-18T03:59:12;100709.63;;;24.30;82.59
62791;BME280;48830;53.426;10.300;2023-09-18T04:01:38;100703.63;;;24.26;82.71
62791;BME280;48830;53.426;10.300;2023-09-18T04:04:04;100694.84;;;24.27;82.49
62791;BME280;48830;53.426;10.300;2023-09-18T04:06:36;100688.88;;;24.24;82.17
62791;BME280;48830;53.426;10.300;2023-09-18T04:09:03;100687.09;;;24.24;82.60
62791;BME280;48830;53.426;10.300;2023-09-18T04:11:28;100676.59;;;24.24;82.14
62791;BME280;48830;53.426;10.300;2023-09-18T04:13:58;100675.59;;;24.27;82.65
62791;BME280;48830;53.426;10.300;2023-09-18T04:16:24;100669.63;;;24.23;81.97
62791;BME280;48830;53.426;10.300;2023-09-18T04:18:49;100667.78;;;24.25;82.39
62791;BME280;48830;53.426;10.300;2023-09-18T04:21:14;100662.53;;;24.25;82.02
62791;BME280;48830;53.426;10.300;2023-09-18T04:23:40;100666.94;;;24.25;82.08
62791;BME280;48830;53.426;10.300;2023-09-18T04:26:06;100654.66;;;24.25;82.50
62791;BME280;48830;53.426;10.300;2023-09-18T04:28:31;100661.69;;;24.25;82.21
62791;BME280;48830;53.426;10.300;2023-09-18T04:30:57;100652.94;;;24.24;82.56
62791;BME280;48830;53.426;10.300;2023-09-18T04:33:24;100652.94;;;24.24;82.08
62791;BME280;48830;53.426;10.300;2023-09-18T04:35:51;100650.41;;;24.23;82.04
62791;BME280;48830;53.426;10.300;2023-09-18T04:38:16;100646.13;;;24.20;82.54
62791;BME280;48830;53.426;10.300;2023-09-18T04:40:44;100636.53;;;24.19;82.59
62791;BME280;48830;53.426;10.300;2023-09-18T04:43:11;100626.88;;;24.20;82.09
62791;BME280;48830;53.426;10.300;2023-09-18T04:45:36;100615.53;;;24.19;82.25
62791;BME280;48830;53.426;10.300;2023-09-18T04:48:02;100622.47;;;24.20;82.82
62791;BME280;48830;53.426;10.300;2023-09-18T04:50:28;100611.97;;;24.20;82.14
62791;BME280;48830;53.426;10.300;2023-09-18T04:52:54;100606.03;;;24.17;82.28
62791;BME280;48830;53.426;10.300;2023-09-18T04:55:21;100605.00;;;24.19;82.11
62791;BME280;48830;53.426;10.300;2023-09-18T04:57:46;100593.66;;;24.19;82.11
62791;BME280;48830;53.426;10.300;2023-09-18T05:00:12;100593.66;;;24.19;82.45
62791;BME280;48830;53.426;10.300;2023-09-18T05:02:39;100589.34;;;24.18;82.18
62791;BME280;48830;53.426;10.300;2023-09-18T05:05:05;100582.38;;;24.17;82.71
62791;BME280;48830;53.426;10.300;2023-09-18T05:07:30;100579.69;;;24.18;82.34
62791;BME280;48830;53.426;10.300;2023-09-18T05:09:57;100574.53;;;24.15;82.54
62791;BME280;48830;53.426;10.300;2023-09-18T05:12:23;100570.94;;;24.18;82.16
62791;BME280;48830;53.426;10.300;2023-09-18T05:14:48;100567.50;;;24.16;82.22
62791;BME280;48830;53.426;10.300;2023-09-18T05:17:14;100557.75;;;24.19;81.97
62791;BME280;48830;53.426;10.300;2023-09-18T05:19:40;100559.44;;;24.20;82.43
62791;BME280;48830;53.426;10.300;2023-09-18T05:22:06;100557.75;;;24.19;82.49
62791;BME280;48830;53.426;10.300;2023-09-18T05:24:31;100561.28;;;24.18;82.23
62791;BME280;48830;53.426;10.300;2023-09-18T05:26:57;100552.47;;;24.19;81.90
62791;BME280;48830;53.426;10.300;2023-09-18T05:29:22;100540.41;;;24.15;82.41
62791;BME280;48830;53.426;10.300;2023-09-18T05:31:48;100535.16;;;24.15;81.91
62791;BME280;48830;53.426;10.300;2023-09-18T05:34:13;100535.09;;;24.17;82.39
62791;BME280;48830;53.426;10.300;2023-09-18T05:36:38;100536.72;;;24.19;82.44
62791;BME280;48830;53.426;10.300;2023-09-18T05:39:04;100542.75;;;24.21;82.15
62791;BME280;48830;53.426;10.300;2023-09-18T05:41:29;100539.34;;;24.19;81.78
62791;BME280;48830;53.426;10.300;2023-09-18T05:43:56;100535.69;;;24.23;81.65
62791;BME280;48830;53.426;10.300;2023-09-18T05:46:21;100532.13;;;24.24;81.69
62791;BME280;48830;53.426;10.300;2023-09-18T05:48:46;100526.94;;;24.23;81.67
62791;BME280;48830;53.426;10.300;2023-09-18T05:51:12;100527.72;;;24.25;81.75
62791;BME280;48830;53.426;10.300;2023-09-18T05:53:37;100518.13;;;24.24;81.77
62791;BME280;48830;53.426;10.300;2023-09-18T05:56:03;100520.69;;;24.25;82.02
62791;BME280;48830;53.426;10.300;2023-09-18T05:58:29;100523.22;;;24.27;81.96
62791;BME280;48830;53.426;10.300;2023-09-18T06:00:57;100519.75;;;24.26;82.12
62791;BME280;48830;53.426;10.300;2023-09-18T06:03:23;100504.84;;;24.27;81.75
62791;BME280;48830;53.426;10.300;2023-09-18T06:05:48;100496.00;;;24.29;81.58
62791;BME280;48830;53.426;10.300;2023-09-18T06:08:13;100487.34;;;24.27;82.08
62791;BME280;48830;53.426;10.300;2023-09-18T06:10:39;100488.09;;;24.29;81.51
62791;BME280;48830;53.426;10.300;2023-09-18T06:13:04;100492.44;;;24.30;81.45
62791;BME280;48830;53.426;10.300;2023-09-18T06:15:31;100487.03;;;24.33;81.71
62791;BME280;48830;53.426;10.300;2023-09-18T06:17:56;100491.50;;;24.31;81.37
62791;BME280;48830;53.426;10.300;2023-09-18T06:20:22;100491.25;;;24.38;81.55
62791;BME280;48830;53.426;10.300;2023-09-18T06:22:47;100488.63;;;24.38;81.60
62791;BME280;48830;53.426;10.300;2023-09-18T06:25:13;100486.78;;;24.40;81.81
62791;BME280;48830;53.426;10.300;2023-09-18T06:27:40;100488.56;;;24.39;81.36
62791;BME280;48830;53.426;10.300;2023-09-18T06:30:05;100486.00;;;24.38;81.80
62791;BME280;48830;53.426;10.300;2023-09-18T06:32:31;100481.53;;;24.40;81.26
62791;BME280;48830;53.426;10.300;2023-09-18T06:34:56;100474.41;;;24.42;81.63
62791;BME280;48830;53.426;10.300;2023-09-18T06:37:25;100483.38;;;24.38;81.32
62791;BME280;48830;53.426;10.300;2023-09-18T06:39:50;100478.63;;;24.46;81.15
62791;BME280;48830;53.426;10.300;2023-09-18T06:42:16;100480.81;;;24.17;81.40
62791;BME280;48830;53.426;10.300;2023-09-18T06:44:42;100481.41;;;23.85;82.31
62791;BME280;48830;53.426;10.300;2023-09-18T06:47:07;100485.00;;;23.82;82.88
62791;BME280;48830;53.426;10.300;2023-09-18T06:49:32;100478.91;;;23.81;83.30
62791;BME280;48830;53.426;10.300;2023-09-18T06:51:57;100475.03;;;23.90;83.20
62791;BME280;48830;53.426;10.300;2023-09-18T06:54:23;100459.69;;;24.00;83.48
62791;BME280;48830;53.426;10.300;2023-09-18T06:56:48;100451.69;;;24.03;83.21
62791;BME280;48830;53.426;10.300;2023-09-18T06:59:14;100440.91;;;24.09;82.99
62791;BME280;48830;53.426;10.300;2023-09-18T07:01:40;100436.56;;;24.08;82.97
62791;BME280;48830;53.426;10.300;2023-09-18T07:04:07;100433.81;;;24.11;82.46
62791;BME280;48830;53.426;10.300;2023-09-18T07:06:33;100425.84;;;24.13;82.81
62791;BME280;48830;53.426;10.300;2023-09-18T07:08:58;100410.94;;;24.13;82.98
62791;BME280;48830;53.426;10.300;2023-09-18T07:11:24;100410.81;;;24.16;82.72
62791;BME280;48830;53.426;10.300;2023-09-18T07:13:50;100407.09;;;24.20;82.95
62791;BME280;48830;53.426;10.300;2023-09-18T07:16:15;100400.88;;;24.23;83.09
62791;BME280;48830;53.426;10.300;2023-09-18T07:18:41;100399.09;;;24.23;83.04
62791;BME280;48830;53.426;10.300;2023-09-18T07:21:06;100398.03;;;24.27;82.76
62791;BME280;48830;53.426;10.300;2023-09-18T07:23:32;100396.03;;;24.32;82.97
62791;BME280;48830;53.426;10.300;2023-09-18T07:25:57;100383.78;;;24.31;82.50
62791;BME280;48830;53.426;10.300;2023-09-18T07:28:23;100378.41;;;24.34;82.22
62791;BME280;48830;53.426;10.300;2023-09-18T07:30:49;100381.97;;;24.33;82.26
62791;BME280;48830;53.426;10.300;2023-09-18T07:33:14;100383.78;;;24.31;82.76
62791;BME280;48830;53.426;10.300;2023-09-18T07:35:49;100390.78;;;24.32;82.37
62791;BME280;48830;53.426;10.300;2023-09-18T07:38:17;100386.38;;;24.33;82.37
62791;BME280;48830;53.426;10.300;2023-09-18T07:40:44;100387.28;;;24.32;82.59
62791;BME280;48830;53.426;10.300;2023-09-18T07:43:10;100390.66;;;24.35;83.17
62791;BME280;48830;53.426;10.300;2023-09-18T07:45:37;100382.81;;;24.34;82.75
62791;BME280;48830;53.426;10.300;2023-09-18T07:48:03;100380.97;;;24.36;83.19
62791;BME280;48830;53.426;10.300;2023-09-18T07:50:29;100361.63;;;24.39;82.56
62791;BME280;48830;53.426;10.300;2023-09-18T07:52:56;100358.13;;;24.38;82.85
62791;BME280;48830;53.426;10.300;2023-09-18T07:55:21;100367.00;;;24.35;82.77
62791;BME280;48830;53.426;10.300;2023-09-18T07:57:47;100375.66;;;24.38;82.70
62791;BME280;48830;53.426;10.300;2023-09-18T08:00:14;100373.03;;;24.38;83.24
62791;BME280;48830;53.426;10.300;2023-09-18T08:02:40;100385.09;;;24.42;83.00
62791;BME280;48830;53.426;10.300;2023-09-18T08:05:07;100368.47;;;24.41;83.14
62791;BME280;48830;53.426;10.300;2023-09-18T08:07:33;100364.91;;;24.42;82.99
62791;BME280;48830;53.426;10.300;2023-09-18T08:10:00;100355.25;;;24.43;83.01
62791;BME280;48830;53.426;10.300;2023-09-18T08:12:25;100350.25;;;24.38;82.81
62791;BME280;48830;53.426;10.300;2023-09-18T08:14:51;100355.50;;;24.38;82.98
62791;BME280;48830;53.426;10.300;2023-09-18T08:17:16;100357.13;;;24.41;83.09
62791;BME280;48830;53.426;10.300;2023-09-18T08:19:41;100354.50;;;24.41;83.22
62791;BME280;48830;53.426;10.300;2023-09-18T08:22:09;100346.53;;;24.42;82.89
62791;BME280;48830;53.426;10.300;2023-09-18T08:24:35;100341.44;;;24.39;82.79
62791;BME280;48830;53.426;10.300;2023-09-18T08:27:00;100338.94;;;24.36;83.17
62791;BME280;48830;53.426;10.300;2023-09-18T08:29:26;100350.31;;;24.37;83.05
62791;BME280;48830;53.426;10.300;2023-09-18T08:31:51;100395.75;;;24.39;83.41
62791;BME280;48830;53.426;10.300;2023-09-18T08:34:16;100398.22;;;24.42;83.27
62791;BME280;48830;53.426;10.300;2023-09-18T08:36:42;100395.75;;;24.39;83.03
62791;BME280;48830;53.426;10.300;2023-09-18T08:39:07;100395.81;;;24.37;83.50
62791;BME280;48830;53.426;10.300;2023-09-18T08:41:33;100385.38;;;24.35;83.13
62791;BME280;48830;53.426;10.300;2023-09-18T08:44:00;100389.56;;;24.40;83.65
62791;BME280;48830;53.426;10.300;2023-09-18T08:46:26;100395.59;;;24.42;82.96
62791;BME280;48830;53.426;10.300;2023-09-18T08:48:52;100399.72;;;24.47;83.13
62791;BME280;48830;53.426;10.300;2023-09-18T08:51:18;100407.66;;;24.46;82.93
62791;BME280;48830;53.426;10.300;2023-09-18T08:53:44;100405.81;;;24.48;82.97
62791;BME280;48830;53.426;10.300;2023-09-18T08:56:09;100407.66;;;24.46;83.26
62791;BME280;48830;53.426;10.300;2023-09-18T08:58:36;100400.56;;;24.48;83.28
62791;BME280;48830;53.426;10.300;2023-09-18T09:01:04;100397.94;;;24.48;83.37
62791;BME280;48830;53.426;10.300;2023-09-18T09:03:31;100402.28;;;24.49;83.95
62791;BME280;48830;53.426;10.300;2023-09-18T09:05:57;100395.28;;;24.48;83.78
62791;BME280;48830;53.426;10.300;2023-09-18T09:08:27;100397.03;;;24.49;83.78
62791;BME280;48830;53.426;10.300;2023-09-18T09:10:52;100392.63;;;24.49;83.88
62791;BME280;48830;53.426;10.300;2023-09-18T09:13:17;100390.03;;;24.48;83.33
62791;BME280;48830;53.426;10.300;2023-09-18T09:15:43;100390.03;;;24.48;83.82
62791;BME280;48830;53.426;10.300;2023-09-18T09:18:13;100381.59;;;24.60;83.61
62791;BME280;48830;53.426;10.300;2023-09-18T09:20:52;100386.03;;;24.58;83.05
62791;BME280;48830;53.426;10.300;2023-09-18T09:23:18;100386.22;;;24.55;83.05
62791;BME280;48830;53.426;10.300;2023-09-18T09:25:43;100366.13;;;24.54;83.44
62791;BME280;48830;53.426;10.300;2023-09-18T09:28:09;100375.69;;;24.55;83.41
62791;BME280;48830;53.426;10.300;2023-09-18T09:30:35;100363.19;;;24.60;83.03
62791;BME280;48830;53.426;10.300;2023-09-18T09:33:04;100361.31;;;24.62;83.26
62791;BME280;48830;53.426;10.300;2023-09-18T09:35:30;100367.13;;;24.69;83.00
62791;BME280;48830;53.426;10.300;2023-09-18T09:37:57;100361.31;;;24.62;83.36
62791;BME280;48830;53.426;10.300;2023-09-18T09:40:24;100354.38;;;24.61;83.37
62791;BME280;48830;53.426;10.300;2023-09-18T09:42:53;100357.94;;;24.60;83.43
62791;BME280;48830;53.426;10.300;2023-09-18T09:45:22;100353.66;;;24.57;83.73
62791;BME280;48830;53.426;10.300;2023-09-18T09:47:48;100354.59;;;24.56;83.73
62791;BME280;48830;53.426;10.300;2023-09-18T09:50:18;100358.06;;;24.57;83.73
62791;BME280;48830;53.426;10.300;2023-09-18T09:52:48;100351.66;;;24.63;83.75
62791;BME280;48830;53.426;10.300;2023-09-18T09:57:49;100348.09;;;24.64;83.55
62791;BME280;48830;53.426;10.300;2023-09-18T10:00:15;100340.16;;;24.65;83.82
62791;BME280;48830;53.426;10.300;2023-09-18T10:02:53;100337.53;;;24.65;83.21
62791;BME280;48830;53.426;10.300;2023-09-18T10:05:21;100336.59;;;24.66;83.13
62791;BME280;48830;53.426;10.300;2023-09-18T10:07:49;100332.31;;;24.64;83.74
62791;BME280;48830;53.426;10.300;2023-09-18T10:10:14;100335.97;;;24.61;83.98
62791;BME280;48830;53.426;10.300;2023-09-18T10:12:39;100330.53;;;24.64;83.82
62791;BME280;48830;53.426;10.300;2023-09-18T10:15:05;100327.91;;;24.64;84.12
62791;BME280;48830;53.426;10.300;2023-09-18T10:17:34;100333.97;;;24.66;84.09
62791;BME280;48830;53.426;10.300;2023-09-18T10:20:05;100340.69;;;24.72;84.02
62791;BME280;48830;53.426;10.300;2023-09-18T10:22:37;100343.22;;;24.73;84.96
62791;BME280;48830;53.426;10.300;2023-09-18T10:25:21;100349.88;;;24.80;83.63
62791;BME280;48830;53.426;10.300;2023-09-18T10:27:48;100350.81;;;24.79;85.67
62791;BME280;48830;53.426;10.300;2023-09-18T10:30:26;100358.25;;;24.71;86.43
62791;BME280;48830;53.426;10.300;2023-09-18T10:32:52;100357.31;;;24.72;85.93
62791;BME280;48830;53.426;10.300;2023-09-18T10:35:18;100345.00;;;24.73;86.19
62791;BME280;48830;53.426;10.300;2023-09-18T10:37:45;100349.41;;;24.72;86.20
62791;BME280;48830;53.426;10.300;2023-09-18T10:40:11;100364.13;;;24.76;85.93
62791;BME280;48830;53.426;10.300;2023-09-18T10:42:38;100362.38;;;24.75;85.18
62791;BME280;48830;53.426;10.300;2023-09-18T10:45:04;100357.94;;;24.77;85.20
62791;BME280;48830;53.426;10.300;2023-09-18T10:47:32;100347.50;;;24.76;85.52
62791;BME280;48830;53.426;10.300;2023-09-18T10:49:58;100345.78;;;24.75;85.42
62791;BME280;48830;53.426;10.300;2023-09-18T10:52:23;100346.63;;;24.75;85.66
62791;BME280;48830;53.426;10.300;2023-09-18T10:54:48;100348.34;;;24.76;85.65
62791;BME280;48830;53.426;10.300;2023-09-18T10:57:14;100348.50;;;24.73;85.31
62791;BME280;48830;53.426;10.300;2023-09-18T10:59:43;100358.06;;;24.74;85.52
62791;BME280;48830;53.426;10.300;2023-09-18T11:02:09;100362.56;;;24.72;86.14
62791;BME280;48830;53.426;10.300;2023-09-18T11:04:35;100361.53;;;24.75;86.04
62791;BME280;48830;53.426;10.300;2023-09-18T11:07:01;100365.03;;;24.75;86.23
62791;BME280;48830;53.426;10.300;2023-09-18T11:09:29;100346.78;;;24.72;86.10
62791;BME280;48830;53.426;10.300;2023-09-18T11:22:38;100349.94;;;24.79;86.31
62791;BME280;48830;53.426;10.300;2023-09-18T11:27:55;100342.88;;;24.81;86.76
62791;BME280;48830;53.426;10.300;2023-09-18T11:30:21;100344.63;;;24.80;87.08
62791;BME280;48830;53.426;10.300;2023-09-18T11:32:46;100342.91;;;24.79;87.75
62791;BME280;48830;53.426;10.300;2023-09-18T11:35:12;100348.16;;;24.79;87.97
62791;BME280;48830;53.426;10.300;2023-09-18T11:37:38;100355.22;;;24.79;87.76
62791;BME280;48830;53.426;10.300;2023-09-18T11:40:04;100362.25;;;24.78;87.72
62791;BME280;48830;53.426;10.300;2023-09-18T11:42:31;100362.13;;;24.81;87.97
62791;BME280;48830;53.426;10.300;2023-09-18T11:44:56;100360.25;;;24.83;87.55
62791;BME280;48830;53.426;10.300;2023-09-18T11:47:23;100355.84;;;24.84;87.28
62791;BME280;48830;53.426;10.300;2023-09-18T11:49:50;100353.13;;;24.85;87.34
62791;BME280;48830;53.426;10.300;2023-09-18T11:52:18;100352.22;;;24.86;87.58
62791;BME280;48830;53.426;10.300;2023-09-18T11:54:44;100353.97;;;24.86;86.98
62791;BME280;48830;53.426;10.300;2023-09-18T11:57:12;100345.31;;;24.84;87.31
62791;BME280;48830;53.426;10.300;2023-09-18T11:59:38;100359.22;;;24.86;87.83
62791;BME280;48830;53.426;10.300;2023-09-18T12:02:04;100370.66;;;24.85;87.28
62791;BME280;48830;53.426;10.300;2023-09-18T12:04:31;100376.88;;;24.84;87.63
62791;BME280;48830;53.426;10.300;2023-09-18T12:06:58;100381.97;;;24.87;87.59
62791;BME280;48830;53.426;10.300;2023-09-18T12:09:31;100395.19;;;24.85;87.59
62791;BME280;48830;53.426;10.300;2023-09-18T12:12:00;100378.66;;;24.83;87.50
62791;BME280;48830;53.426;10.300;2023-09-18T12:14:33;100362.97;;;24.82;86.63
62791;BME280;48830;53.426;10.300;2023-09-18T12:17:01;100365.50;;;24.83;87.41
62791;BME280;48830;53.426;10.300;2023-09-18T12:19:29;100360.09;;;24.86;87.44
62791;BME280;48830;53.426;10.300;2023-09-18T12:21:55;100360.72;;;24.92;87.05
62791;BME280;48830;53.426;10.300;2023-09-18T12:24:21;100355.13;;;24.98;86.66
62791;BME280;48830;53.426;10.300;2023-09-18T12:26:47;100344.63;;;24.98;87.21
62791;BME280;48830;53.426;10.300;2023-09-18T12:29:12;100348.16;;;24.97;87.97
62791;BME280;48830;53.426;10.300;2023-09-18T12:31:38;100352.91;;;25.07;87.26
62791;BME280;48830;53.426;10.300;2023-09-18T12:34:04;100357.16;;;25.10;87.69
62791;BME280;48830;53.426;10.300;2023-09-18T12:36:32;100351.19;;;25.06;88.25
62791;BME280;48830;53.426;10.300;2023-09-18T12:38:58;100351.50;;;25.00;89.11
62791;BME280;48830;53.426;10.300;2023-09-18T12:41:25;100346.22;;;25.00;89.25
62791;BME280;48830;53.426;10.300;2023-09-18T12:43:51;100344.38;;;25.02;88.87
62791;BME280;48830;53.426;10.300;2023-09-18T12:46:17;100350.34;;;25.06;87.50
62791;BME280;48830;53.426;10.300;2023-09-18T12:48:44;100358.31;;;25.04;88.29
62791;BME280;48830;53.426;10.300;2023-09-18T12:51:13;100350.22;;;25.09;87.89
62791;BME280;48830;53.426;10.300;2023-09-18T12:53:39;100348.56;;;25.06;88.41